sensor_id;sensor_type;location;lat;lon;timestamp;temperature;humidity
46181;DHT22;58963;50.438;30.594;2022-09-09T00:06:23;10.00;99.90
46181;DHT22;58963;50.438;30.594;2022-09-09T00:11:51;9.90;99.90
46181;DHT22;58963;50.438;30.594;2022-09-09T00:17:22;10.00;99.90
46181;DHT22;58963;50.438;30.594;2022-09-09T00:22:56;10.00;99.90
46181;DHT22;58963;50.438;30.594;2022-09-09T00:28:20;9.80;99.90
46181;DHT22;58963;50.438;30.594;2022-09-09T00:33:43;9.80;99.90
46181;DHT22;58963;50.438;30.594;2022-09-09T00:39:03;9.60;99.90
46181;DHT22;58963;50.438;30.594;2022-09-09T00:44:34;9.50;99.90
46181;DHT22;58963;50.438;30.594;2022-09-09T00:56:00;9.50;99.90
46181;DHT22;58963;50.438;30.594;2022-09-09T01:01:24;9.50;99.90
46181;DHT22;58963;50.438;30.594;2022-09-09T01:06:46;9.30;99.90
46181;DHT22;58963;50.438;30.594;2022-09-09T01:12:34;9.30;99.90
46181;DHT22;58963;50.438;30.594;2022-09-09T01:18:07;9.30;99.90
46181;DHT22;58963;50.438;30.594;2022-09-09T01:29:17;9.30;99.90
46181;DHT22;58963;50.438;30.594;2022-09-09T01:34:40;9.20;99.90
46181;DHT22;58963;50.438;30.594;2022-09-09T01:40:00;9.20;99.90
46181;DHT22;58963;50.438;30.594;2022-09-09T01:45:21;9.10;99.90
46181;DHT22;58963;50.438;30.594;2022-09-09T01:50:40;9.00;99.90
46181;DHT22;58963;50.438;30.594;2022-09-09T02:07:28;8.80;99.90
46181;DHT22;58963;50.438;30.594;2022-09-09T02:12:57;8.80;99.90
46181;DHT22;58963;50.438;30.594;2022-09-09T02:18:25;8.70;99.90
46181;DHT22;58963;50.438;30.594;2022-09-09T02:23:48;8.70;99.90
46181;DHT22;58963;50.438;30.594;2022-09-09T02:29:17;8.60;99.90
46181;DHT22;58963;50.438;30.594;2022-09-09T02:34:50;8.50;99.90
46181;DHT22;58963;50.438;30.594;2022-09-09T02:40:11;8.50;99.90
46181;DHT22;58963;50.438;30.594;2022-09-09T02:45:41;8.40;99.90
46181;DHT22;58963;50.438;30.594;2022-09-09T02:51:11;8.30;99.90
46181;DHT22;58963;50.438;30.594;2022-09-09T02:56:36;8.30;99.90
46181;DHT22;58963;50.438;30.594;2022-09-09T03:01:57;8.30;99.90
46181;DHT22;58963;50.438;30.594;2022-09-09T03:07:18;8.30;99.90
46181;DHT22;58963;50.438;30.594;2022-09-09T03:12:37;8.30;99.90
46181;DHT22;58963;50.438;30.594;2022-09-09T03:17:58;8.40;99.90
46181;DHT22;58963;50.438;30.594;2022-09-09T03:23:18;8.40;99.90
46181;DHT22;58963;50.438;30.594;2022-09-09T03:28:37;8.40;99.90
46181;DHT22;58963;50.438;30.594;2022-09-09T03:33:57;8.40;99.90
46181;DHT22;58963;50.438;30.594;2022-09-09T03:39:17;8.30;99.90
46181;DHT22;58963;50.438;30.594;2022-09-09T03:44:36;8.20;99.90
46181;DHT22;58963;50.438;30.594;2022-09-09T03:49:55;8.30;99.90
46181;DHT22;58963;50.438;30.594;2022-09-09T03:55:14;8.20;99.90
46181;DHT22;58963;50.438;30.594;2022-09-09T04:00:33;8.30;99.90
46181;DHT22;58963;50.438;30.594;2022-09-09T04:05:53;8.40;99.90
46181;DHT22;58963;50.438;30.594;2022-09-09T04:11:13;8.40;99.90
46181;DHT22;58963;50.438;30.594;2022-09-09T04:16:33;8.40;99.90
46181;DHT22;58963;50.438;30.594;2022-09-09T04:21:54;8.40;99.90
46181;DHT22;58963;50.438;30.594;2022-09-09T04:27:13;8.30;99.90
46181;DHT22;58963;50.438;30.594;2022-09-09T04:32:33;8.40;99.90
46181;DHT22;58963;50.438;30.594;2022-09-09T04:37:53;8.30;99.90
46181;DHT22;58963;50.438;30.594;2022-09-09T04:43:12;8.40;99.90
46181;DHT22;58963;50.438;30.594;2022-09-09T04:48:33;8.40;99.90
46181;DHT22;58963;50.438;30.594;2022-09-09T04:53:53;8.50;99.90
46181;DHT22;58963;50.438;30.594;2022-09-09T04:59:13;8.70;99.90
46181;DHT22;58963;50.438;30.594;2022-09-09T05:04:32;9.70;99.90
46181;DHT22;58963;50.438;30.594;2022-09-09T05:09:52;11.20;99.90
46181;DHT22;58963;50.438;30.594;2022-09-09T05:15:11;12.00;97.80
46181;DHT22;58963;50.438;30.594;2022-09-09T05:20:30;13.40;92.90
46181;DHT22;58963;50.438;30.594;2022-09-09T05:25:56;15.00;84.10
46181;DHT22;58963;50.438;30.594;2022-09-09T05:31:17;16.00;76.40
46181;DHT22;58963;50.438;30.594;2022-09-09T05:36:36;16.20;70.20
46181;DHT22;58963;50.438;30.594;2022-09-09T05:41:55;16.30;71.00
46181;DHT22;58963;50.438;30.594;2022-09-09T05:47:14;15.40;72.70
46181;DHT22;58963;50.438;30.594;2022-09-09T05:52:34;15.20;74.20
46181;DHT22;58963;50.438;30.594;2022-09-09T05:57:53;16.60;68.50
46181;DHT22;58963;50.438;30.594;2022-09-09T06:03:12;18.40;61.30
46181;DHT22;58963;50.438;30.594;2022-09-09T06:08:33;19.00;59.00
46181;DHT22;58963;50.438;30.594;2022-09-09T06:13:53;19.20;56.80
46181;DHT22;58963;50.438;30.594;2022-09-09T06:19:13;19.10;57.80
46181;DHT22;58963;50.438;30.594;2022-09-09T06:24:33;19.50;55.70
46181;DHT22;58963;50.438;30.594;2022-09-09T06:29:52;20.10;54.20
46181;DHT22;58963;50.438;30.594;2022-09-09T06:35:12;19.60;55.00
46181;DHT22;58963;50.438;30.594;2022-09-09T06:40:32;21.10;52.00
46181;DHT22;58963;50.438;30.594;2022-09-09T06:45:58;21.60;49.90
46181;DHT22;58963;50.438;30.594;2022-09-09T06:51:20;22.20;49.20
46181;DHT22;58963;50.438;30.594;2022-09-09T06:56:42;21.70;48.50
46181;DHT22;58963;50.438;30.594;2022-09-09T07:02:02;22.40;48.30
46181;DHT22;58963;50.438;30.594;2022-09-09T07:07:22;22.90;47.30
46181;DHT22;58963;50.438;30.594;2022-09-09T07:12:44;21.90;48.00
46181;DHT22;58963;50.438;30.594;2022-09-09T07:18:03;22.00;48.20
46181;DHT22;58963;50.438;30.594;2022-09-09T07:23:23;21.40;49.00
46181;DHT22;58963;50.438;30.594;2022-09-09T07:28:42;23.20;46.70
46181;DHT22;58963;50.438;30.594;2022-09-09T07:34:03;24.20;45.00
46181;DHT22;58963;50.438;30.594;2022-09-09T07:39:22;23.50;44.50
46181;DHT22;58963;50.438;30.594;2022-09-09T07:44:43;23.50;45.00
46181;DHT22;58963;50.438;30.594;2022-09-09T07:50:02;21.80;46.90
46181;DHT22;58963;50.438;30.594;2022-09-09T07:55:23;22.60;46.90
46181;DHT22;58963;50.438;30.594;2022-09-09T08:00:45;21.70;45.70
46181;DHT22;58963;50.438;30.594;2022-09-09T08:06:07;21.70;46.60
46181;DHT22;58963;50.438;30.594;2022-09-09T08:11:28;23.00;44.90
46181;DHT22;58963;50.438;30.594;2022-09-09T08:16:49;22.90;44.00
46181;DHT22;58963;50.438;30.594;2022-09-09T08:22:08;25.20;41.50
46181;DHT22;58963;50.438;30.594;2022-09-09T08:27:28;24.40;41.40
46181;DHT22;58963;50.438;30.594;2022-09-09T08:32:48;24.40;42.00
46181;DHT22;58963;50.438;30.594;2022-09-09T08:38:09;23.90;42.40
46181;DHT22;58963;50.438;30.594;2022-09-09T08:43:30;23.80;43.00
46181;DHT22;58963;50.438;30.594;2022-09-09T08:49:02;24.20;41.00
46181;DHT22;58963;50.438;30.594;2022-09-09T08:54:26;24.40;41.80
46181;DHT22;58963;50.438;30.594;2022-09-09T08:59:51;24.00;51.10
46181;DHT22;58963;50.438;30.594;2022-09-09T09:10:49;24.60;43.20
46181;DHT22;58963;50.438;30.594;2022-09-09T09:16:22;24.00;41.10
46181;DHT22;58963;50.438;30.594;2022-09-09T09:21:45;22.60;53.90
46181;DHT22;58963;50.438;30.594;2022-09-09T09:27:40;24.10;41.10
46181;DHT22;58963;50.438;30.594;2022-09-09T09:33:11;24.40;40.40
46181;DHT22;58963;50.438;30.594;2022-09-09T09:38:33;24.00;39.60
46181;DHT22;58963;50.438;30.594;2022-09-09T09:43:54;24.30;40.80
46181;DHT22;58963;50.438;30.594;2022-09-09T09:49:13;24.60;50.10
46181;DHT22;58963;50.438;30.594;2022-09-09T09:54:41;23.90;39.20
46181;DHT22;58963;50.438;30.594;2022-09-09T10:05:45;24.40;43.40
46181;DHT22;58963;50.438;30.594;2022-09-09T10:11:26;24.10;48.10
46181;DHT22;58963;50.438;30.594;2022-09-09T10:16:59;25.60;38.90
46181;DHT22;58963;50.438;30.594;2022-09-09T10:22:26;24.20;40.50
46181;DHT22;58963;50.438;30.594;2022-09-09T10:28:08;24.80;40.60
46181;DHT22;58963;50.438;30.594;2022-09-09T10:33:50;25.60;44.70
46181;DHT22;58963;50.438;30.594;2022-09-09T10:39:32;25.20;47.10
46181;DHT22;58963;50.438;30.594;2022-09-09T10:56:24;23.70;50.00
46181;DHT22;58963;50.438;30.594;2022-09-09T11:01:59;22.90;41.20
46181;DHT22;58963;50.438;30.594;2022-09-09T11:13:05;22.70;44.30
46181;DHT22;58963;50.438;30.594;2022-09-09T11:18:32;22.40;38.90
46181;DHT22;58963;50.438;30.594;2022-09-09T11:24:11;21.70;42.30
46181;DHT22;58963;50.438;30.594;2022-09-09T11:47:32;21.20;42.90
46181;DHT22;58963;50.438;30.594;2022-09-09T11:53:04;21.80;45.10
46181;DHT22;58963;50.438;30.594;2022-09-09T11:58:24;21.70;42.20
46181;DHT22;58963;50.438;30.594;2022-09-09T12:09:49;21.30;43.30
46181;DHT22;58963;50.438;30.594;2022-09-09T12:25:57;21.00;43.60
46181;DHT22;58963;50.438;30.594;2022-09-09T12:42:32;20.90;47.10
46181;DHT22;58963;50.438;30.594;2022-09-09T12:48:01;20.30;45.00
46181;DHT22;58963;50.438;30.594;2022-09-09T12:53:27;19.70;47.20
46181;DHT22;58963;50.438;30.594;2022-09-09T12:58:49;19.70;49.80
46181;DHT22;58963;50.438;30.594;2022-09-09T13:04:22;19.70;54.40
46181;DHT22;58963;50.438;30.594;2022-09-09T13:09:45;19.90;52.00
46181;DHT22;58963;50.438;30.594;2022-09-09T13:15:14;20.00;45.40
46181;DHT22;58963;50.438;30.594;2022-09-09T13:20:36;19.50;45.90
46181;DHT22;58963;50.438;30.594;2022-09-09T13:25:58;19.60;46.90
46181;DHT22;58963;50.438;30.594;2022-09-09T13:31:34;19.30;46.90
46181;DHT22;58963;50.438;30.594;2022-09-09T13:37:01;19.10;47.10
46181;DHT22;58963;50.438;30.594;2022-09-09T13:42:27;19.00;46.40
46181;DHT22;58963;50.438;30.594;2022-09-09T13:47:47;19.00;54.70
46181;DHT22;58963;50.438;30.594;2022-09-09T13:53:11;19.10;47.90
46181;DHT22;58963;50.438;30.594;2022-09-09T13:58:30;18.60;47.10
46181;DHT22;58963;50.438;30.594;2022-09-09T14:03:49;18.40;47.90
46181;DHT22;58963;50.438;30.594;2022-09-09T14:09:13;18.50;47.50
46181;DHT22;58963;50.438;30.594;2022-09-09T14:14:32;18.30;47.80
46181;DHT22;58963;50.438;30.594;2022-09-09T14:19:55;18.40;52.30
46181;DHT22;58963;50.438;30.594;2022-09-09T14:25:15;18.40;52.40
46181;DHT22;58963;50.438;30.594;2022-09-09T14:30:34;18.40;47.50
46181;DHT22;58963;50.438;30.594;2022-09-09T14:35:57;18.40;46.80
46181;DHT22;58963;50.438;30.594;2022-09-09T14:41:18;18.50;49.20
46181;DHT22;58963;50.438;30.594;2022-09-09T14:46:38;18.20;53.30
46181;DHT22;58963;50.438;30.594;2022-09-09T14:51:58;18.30;49.90
46181;DHT22;58963;50.438;30.594;2022-09-09T14:57:20;17.90;47.70
46181;DHT22;58963;50.438;30.594;2022-09-09T15:02:40;18.00;64.20
46181;DHT22;58963;50.438;30.594;2022-09-09T15:07:59;18.30;49.20
46181;DHT22;58963;50.438;30.594;2022-09-09T15:13:18;17.80;48.70
46181;DHT22;58963;50.438;30.594;2022-09-09T15:18:38;17.60;49.20
46181;DHT22;58963;50.438;30.594;2022-09-09T15:24:01;17.40;49.60
46181;DHT22;58963;50.438;30.594;2022-09-09T15:29:20;17.40;50.50
46181;DHT22;58963;50.438;30.594;2022-09-09T15:34:40;17.30;50.40
46181;DHT22;58963;50.438;30.594;2022-09-09T15:39:59;17.20;49.80
46181;DHT22;58963;50.438;30.594;2022-09-09T15:45:20;17.20;49.80
46181;DHT22;58963;50.438;30.594;2022-09-09T15:50:39;17.20;49.80
46181;DHT22;58963;50.438;30.594;2022-09-09T15:55:58;17.10;49.80
46181;DHT22;58963;50.438;30.594;2022-09-09T16:01:18;17.10;50.00
46181;DHT22;58963;50.438;30.594;2022-09-09T16:06:49;17.00;50.00
46181;DHT22;58963;50.438;30.594;2022-09-09T16:12:16;17.00;51.50
46181;DHT22;58963;50.438;30.594;2022-09-09T16:17:35;16.90;51.80
46181;DHT22;58963;50.438;30.594;2022-09-09T16:22:56;16.90;52.80
46181;DHT22;58963;50.438;30.594;2022-09-09T16:28:16;16.70;54.20
46181;DHT22;58963;50.438;30.594;2022-09-09T16:33:37;16.50;61.10
46181;DHT22;58963;50.438;30.594;2022-09-09T16:39:05;16.40;56.70
46181;DHT22;58963;50.438;30.594;2022-09-09T16:44:28;16.40;56.60
46181;DHT22;58963;50.438;30.594;2022-09-09T16:49:52;16.20;58.80
46181;DHT22;58963;50.438;30.594;2022-09-09T16:55:11;16.00;61.50
46181;DHT22;58963;50.438;30.594;2022-09-09T17:00:31;15.90;61.20
46181;DHT22;58963;50.438;30.594;2022-09-09T17:05:53;15.90;62.90
46181;DHT22;58963;50.438;30.594;2022-09-09T17:11:18;15.90;60.40
46181;DHT22;58963;50.438;30.594;2022-09-09T17:16:37;15.90;59.40
46181;DHT22;58963;50.438;30.594;2022-09-09T17:22:07;15.90;59.90
46181;DHT22;58963;50.438;30.594;2022-09-09T17:27:30;15.90;58.40
46181;DHT22;58963;50.438;30.594;2022-09-09T17:32:50;15.90;58.70
46181;DHT22;58963;50.438;30.594;2022-09-09T17:38:09;15.90;58.90
46181;DHT22;58963;50.438;30.594;2022-09-09T17:43:38;15.90;59.90
46181;DHT22;58963;50.438;30.594;2022-09-09T17:49:02;15.80;57.90
46181;DHT22;58963;50.438;30.594;2022-09-09T17:54:29;15.80;58.10
46181;DHT22;58963;50.438;30.594;2022-09-09T17:59:48;15.80;58.30
46181;DHT22;58963;50.438;30.594;2022-09-09T18:05:09;15.80;58.10
46181;DHT22;58963;50.438;30.594;2022-09-09T18:10:41;15.70;58.00
46181;DHT22;58963;50.438;30.594;2022-09-09T18:16:06;15.60;60.90
46181;DHT22;58963;50.438;30.594;2022-09-09T18:21:31;15.60;59.50
46181;DHT22;58963;50.438;30.594;2022-09-09T18:27:02;15.60;59.70
46181;DHT22;58963;50.438;30.594;2022-09-09T18:32:21;15.40;60.30
46181;DHT22;58963;50.438;30.594;2022-09-09T18:37:46;15.30;60.80
46181;DHT22;58963;50.438;30.594;2022-09-09T18:43:05;15.30;59.90
46181;DHT22;58963;50.438;30.594;2022-09-09T18:48:26;15.30;64.30
46181;DHT22;58963;50.438;30.594;2022-09-09T18:53:50;15.30;60.90
46181;DHT22;58963;50.438;30.594;2022-09-09T18:59:13;15.20;62.00
46181;DHT22;58963;50.438;30.594;2022-09-09T19:04:33;15.20;59.70
46181;DHT22;58963;50.438;30.594;2022-09-09T19:09:52;15.20;59.90
46181;DHT22;58963;50.438;30.594;2022-09-09T19:15:11;15.20;61.30
46181;DHT22;58963;50.438;30.594;2022-09-09T19:20:30;15.10;59.20
46181;DHT22;58963;50.438;30.594;2022-09-09T19:25:50;15.00;59.40
46181;DHT22;58963;50.438;30.594;2022-09-09T19:31:09;15.00;59.60
46181;DHT22;58963;50.438;30.594;2022-09-09T19:36:32;15.00;60.00
46181;DHT22;58963;50.438;30.594;2022-09-09T19:41:51;14.90;60.80
46181;DHT22;58963;50.438;30.594;2022-09-09T19:47:11;14.90;60.00
46181;DHT22;58963;50.438;30.594;2022-09-09T19:52:35;14.90;60.20
46181;DHT22;58963;50.438;30.594;2022-09-09T19:57:54;14.80;60.10
46181;DHT22;58963;50.438;30.594;2022-09-09T20:03:13;14.80;61.20
46181;DHT22;58963;50.438;30.594;2022-09-09T20:08:34;14.70;60.20
46181;DHT22;58963;50.438;30.594;2022-09-09T20:13:54;14.70;60.60
46181;DHT22;58963;50.438;30.594;2022-09-09T20:19:19;14.70;61.90
46181;DHT22;58963;50.438;30.594;2022-09-09T20:24:49;14.70;61.30
46181;DHT22;58963;50.438;30.594;2022-09-09T20:30:08;14.50;63.00
46181;DHT22;58963;50.438;30.594;2022-09-09T20:35:29;14.40;66.70
46181;DHT22;58963;50.438;30.594;2022-09-09T20:40:49;14.20;73.20
46181;DHT22;58963;50.438;30.594;2022-09-09T20:46:08;13.90;75.30
46181;DHT22;58963;50.438;30.594;2022-09-09T20:51:28;13.70;79.30
46181;DHT22;58963;50.438;30.594;2022-09-09T20:56:51;13.50;90.30
46181;DHT22;58963;50.438;30.594;2022-09-09T21:02:11;13.30;85.90
46181;DHT22;58963;50.438;30.594;2022-09-09T21:07:31;13.20;91.20
46181;DHT22;58963;50.438;30.594;2022-09-09T21:12:50;13.00;92.50
46181;DHT22;58963;50.438;30.594;2022-09-09T21:18:10;12.80;93.90
46181;DHT22;58963;50.438;30.594;2022-09-09T21:23:30;12.60;98.60
46181;DHT22;58963;50.438;30.594;2022-09-09T21:28:49;12.50;97.90
46181;DHT22;58963;50.438;30.594;2022-09-09T21:34:08;12.30;99.90
46181;DHT22;58963;50.438;30.594;2022-09-09T21:39:27;12.30;99.90
46181;DHT22;58963;50.438;30.594;2022-09-09T21:44:47;12.20;99.90
46181;DHT22;58963;50.438;30.594;2022-09-09T21:50:07;12.10;99.90
46181;DHT22;58963;50.438;30.594;2022-09-09T21:55:26;11.90;99.90
46181;DHT22;58963;50.438;30.594;2022-09-09T22:00:46;11.70;99.90
46181;DHT22;58963;50.438;30.594;2022-09-09T22:06:07;11.50;99.90
46181;DHT22;58963;50.438;30.594;2022-09-09T22:11:27;11.50;99.90
46181;DHT22;58963;50.438;30.594;2022-09-09T22:16:48;11.40;99.90
46181;DHT22;58963;50.438;30.594;2022-09-09T22:22:09;11.30;99.90
46181;DHT22;58963;50.438;30.594;2022-09-09T22:27:29;11.20;99.90
46181;DHT22;58963;50.438;30.594;2022-09-09T22:32:48;11.10;99.90
46181;DHT22;58963;50.438;30.594;2022-09-09T22:38:10;11.10;99.90
46181;DHT22;58963;50.438;30.594;2022-09-09T22:43:30;11.00;99.90
46181;DHT22;58963;50.438;30.594;2022-09-09T22:48:53;10.90;99.90
46181;DHT22;58963;50.438;30.594;2022-09-09T22:54:12;10.80;99.90
46181;DHT22;58963;50.438;30.594;2022-09-09T22:59:32;10.80;99.90
46181;DHT22;58963;50.438;30.594;2022-09-09T23:04:51;10.80;99.90
46181;DHT22;58963;50.438;30.594;2022-09-09T23:10:11;10.70;99.90
46181;DHT22;58963;50.438;30.594;2022-09-09T23:15:31;10.60;99.90
46181;DHT22;58963;50.438;30.594;2022-09-09T23:20:57;10.60;99.90
46181;DHT22;58963;50.438;30.594;2022-09-09T23:26:19;10.50;99.90
46181;DHT22;58963;50.438;30.594;2022-09-09T23:31:41;10.60;99.90
46181;DHT22;58963;50.438;30.594;2022-09-09T23:37:02;10.50;99.90
46181;DHT22;58963;50.438;30.594;2022-09-09T23:42:21;10.40;99.90
46181;DHT22;58963;50.438;30.594;2022-09-09T23:47:40;10.40;99.90
46181;DHT22;58963;50.438;30.594;2022-09-09T23:53:00;10.40;99.90
46181;DHT22;58963;50.438;30.594;2022-09-09T23:58:20;10.40;99.90
